createdAt,value
2022-12-04T00:00:26.799Z,14.10
2022-12-04T00:02:53.744Z,15.80
2022-12-04T00:05:20.412Z,17.02
2022-12-04T00:07:47.165Z,16.08
2022-12-04T00:10:13.918Z,15.85
2022-12-04T00:12:41.946Z,14.38
2022-12-04T00:15:25.284Z,16.47
2022-12-04T00:17:53.185Z,16.75
2022-12-04T00:20:19.886Z,16.23
2022-12-04T00:22:46.595Z,15.65
2022-12-04T00:25:13.242Z,13.90
2022-12-04T00:27:39.901Z,15.57
2022-12-04T00:30:09.372Z,15.65
2022-12-04T00:32:36.063Z,15.90
2022-12-04T00:35:03.323Z,17.13
2022-12-04T00:37:29.992Z,17.23
2022-12-04T00:39:56.912Z,14.63
2022-12-04T00:42:23.832Z,15.02
2022-12-04T00:44:50.706Z,16.15
2022-12-04T00:47:18.690Z,16.60
2022-12-04T00:49:45.378Z,17.27
2022-12-04T00:52:12.062Z,14.13
2022-12-04T00:54:38.713Z,17.75
2022-12-04T00:57:05.434Z,16.25
2022-12-04T00:59:32.208Z,15.55
2022-12-04T01:01:58.945Z,15.70
2022-12-04T01:04:26.966Z,15.17
2022-12-04T01:06:53.679Z,14.32
2022-12-04T01:09:20.390Z,17.00
2022-12-04T01:11:47.320Z,15.57
2022-12-04T01:14:14.020Z,14.77
2022-12-04T01:16:40.771Z,14.83
2022-12-04T01:19:09.702Z,15.27
2022-12-04T01:21:38.600Z,13.38
2022-12-04T01:24:06.088Z,15.75
2022-12-04T01:26:32.852Z,13.90
2022-12-04T01:28:59.588Z,15.03
2022-12-04T01:31:26.532Z,12.60
2022-12-04T01:33:53.560Z,13.10
2022-12-04T01:36:22.434Z,14.63
2022-12-04T01:38:50.666Z,13.25
2022-12-04T01:41:20.641Z,14.73
2022-12-04T01:44:06.358Z,15.38
2022-12-04T01:46:33.095Z,16.85
2022-12-04T01:49:00.088Z,13.45
2022-12-04T01:51:30.763Z,14.75
2022-12-04T01:54:01.496Z,15.10
2022-12-04T01:56:33.141Z,15.85
2022-12-04T01:59:02.959Z,14.18
2022-12-04T02:01:35.056Z,13.55
2022-12-04T02:04:02.785Z,15.65
2022-12-04T02:06:29.502Z,15.03
2022-12-04T02:08:56.216Z,13.00
2022-12-04T02:11:33.315Z,13.95
2022-12-04T02:14:07.846Z,14.07
2022-12-04T02:16:42.067Z,16.50
2022-12-04T02:19:31.364Z,14.00
2022-12-04T02:22:00.747Z,14.48
2022-12-04T02:24:49.797Z,13.40
2022-12-04T02:27:27.395Z,16.35
2022-12-04T02:30:01.065Z,15.38
2022-12-04T02:32:37.745Z,16.57
2022-12-04T02:35:08.454Z,13.55
2022-12-04T02:37:38.066Z,14.63
2022-12-04T02:40:08.342Z,14.75
2022-12-04T02:42:39.625Z,17.00
2022-12-04T02:45:10.207Z,14.60
2022-12-04T02:47:39.830Z,15.60
2022-12-04T02:50:10.143Z,13.52
2022-12-04T02:52:40.855Z,16.15
2022-12-04T02:55:13.598Z,15.50
2022-12-04T02:57:48.892Z,16.03
2022-12-04T03:00:18.286Z,14.50
2022-12-04T03:02:51.949Z,13.55
2022-12-04T03:05:22.921Z,16.23
2022-12-04T03:07:53.502Z,15.95
2022-12-04T03:10:28.000Z,14.93
2022-12-04T03:12:57.575Z,15.65
2022-12-04T03:15:31.383Z,13.77
2022-12-04T03:18:03.403Z,16.33
2022-12-04T03:20:32.866Z,17.60
2022-12-04T03:23:02.603Z,14.30
2022-12-04T03:25:35.282Z,13.45
2022-12-04T03:28:06.759Z,15.90
2022-12-04T03:30:41.842Z,14.57
2022-12-04T03:33:12.416Z,13.77
2022-12-04T03:35:43.948Z,14.87
2022-12-04T03:38:16.558Z,13.82
2022-12-04T03:40:49.524Z,15.93
2022-12-04T03:43:24.010Z,12.55
2022-12-04T03:45:57.924Z,14.45
2022-12-04T03:48:29.655Z,11.97
2022-12-04T03:51:02.263Z,13.82
2022-12-04T03:53:36.306Z,14.73
2022-12-04T03:56:09.139Z,13.20
2022-12-04T03:58:38.629Z,14.55
2022-12-04T04:01:09.495Z,14.10
2022-12-04T04:03:41.034Z,14.35
2022-12-04T04:06:12.723Z,13.63
2022-12-04T04:08:42.310Z,13.30
2022-12-04T04:11:13.901Z,13.90
2022-12-04T04:13:47.827Z,13.23
2022-12-04T04:16:20.376Z,12.90
2022-12-04T04:18:49.616Z,12.02
2022-12-04T04:21:21.125Z,13.60
2022-12-04T04:23:50.971Z,13.57
2022-12-04T04:26:18.433Z,14.93
2022-12-04T04:28:46.121Z,11.57
2022-12-04T04:31:23.942Z,13.98
2022-12-04T04:33:59.576Z,13.18
2022-12-04T04:36:35.282Z,11.88
2022-12-04T04:39:10.392Z,14.03
2022-12-04T04:41:43.229Z,12.98
2022-12-04T04:44:17.779Z,14.10
2022-12-04T04:46:50.910Z,12.95
2022-12-04T04:49:21.663Z,11.95
2022-12-04T04:51:48.423Z,11.43
2022-12-04T04:54:17.881Z,14.90
2022-12-04T04:56:46.230Z,13.18
2022-12-04T04:59:13.931Z,12.73
2022-12-04T05:01:43.398Z,13.60
2022-12-04T05:04:11.603Z,11.73
2022-12-04T05:06:38.320Z,13.00
2022-12-04T05:09:05.468Z,13.18
2022-12-04T05:11:32.667Z,13.25
2022-12-04T05:13:59.374Z,12.88
2022-12-04T05:16:26.288Z,12.23
2022-12-04T05:18:53.184Z,14.88
2022-12-04T05:21:21.240Z,11.18
2022-12-04T05:23:47.885Z,12.15
2022-12-04T05:26:14.585Z,12.10
2022-12-04T05:28:41.249Z,11.93
2022-12-04T05:31:08.181Z,11.43
2022-12-04T05:33:34.962Z,11.27
2022-12-04T05:36:03.837Z,12.98
2022-12-04T05:38:32.171Z,12.35
2022-12-04T05:40:59.751Z,13.60
2022-12-04T05:43:26.989Z,14.15
2022-12-04T05:45:53.825Z,11.65
2022-12-04T05:48:20.869Z,12.30
2022-12-04T05:50:47.599Z,12.65
2022-12-04T05:53:14.485Z,14.13
2022-12-04T05:55:42.513Z,11.48
2022-12-04T05:58:09.260Z,12.52
2022-12-04T06:00:36.185Z,11.73
2022-12-04T06:03:02.905Z,12.95
2022-12-04T06:05:29.651Z,13.97
2022-12-04T06:07:56.532Z,13.90
2022-12-04T06:10:23.404Z,11.65
2022-12-04T06:12:51.437Z,11.90
2022-12-04T06:15:18.236Z,13.15
2022-12-04T06:17:44.936Z,12.20
2022-12-04T06:20:12.493Z,11.93
2022-12-04T06:22:39.253Z,12.80
2022-12-04T06:25:07.088Z,13.82
2022-12-04T06:27:34.027Z,12.60
2022-12-04T06:30:02.597Z,12.13
2022-12-04T06:32:29.482Z,15.13
2022-12-04T06:34:56.166Z,12.70
2022-12-04T06:37:24.742Z,13.25
2022-12-04T06:39:53.324Z,12.18
2022-12-04T06:42:20.252Z,14.50
2022-12-04T06:44:46.976Z,12.70
2022-12-04T06:47:15.021Z,15.57
2022-12-04T06:49:41.879Z,12.40
2022-12-04T06:52:08.618Z,13.35
2022-12-04T06:54:35.413Z,11.83
2022-12-04T06:57:02.221Z,11.15
2022-12-04T06:59:28.910Z,15.43
2022-12-04T07:01:55.745Z,10.77
2022-12-04T07:04:23.949Z,12.32
2022-12-04T07:06:50.750Z,12.27
2022-12-04T07:09:18.106Z,12.38
2022-12-04T07:11:45.612Z,11.90
2022-12-04T07:14:13.353Z,13.57
2022-12-04T07:16:42.230Z,14.13
2022-12-04T07:19:11.715Z,14.17
2022-12-04T07:21:39.867Z,11.98
2022-12-04T07:24:07.098Z,12.35
2022-12-04T07:26:34.080Z,13.75
2022-12-04T07:29:00.771Z,12.45
2022-12-04T07:31:29.585Z,14.47
2022-12-04T07:33:57.384Z,12.32
2022-12-04T07:36:25.785Z,12.60
2022-12-04T07:38:55.153Z,12.27
2022-12-04T07:41:22.234Z,12.63
2022-12-04T07:43:49.176Z,11.83
2022-12-04T07:46:17.527Z,13.95
2022-12-04T07:48:44.377Z,12.93
2022-12-04T07:51:12.995Z,13.15
2022-12-04T07:53:40.645Z,13.23
2022-12-04T07:56:10.048Z,12.47
2022-12-04T07:58:36.807Z,12.27
2022-12-04T08:01:08.776Z,13.55
2022-12-04T08:03:35.729Z,13.82
2022-12-04T08:06:03.240Z,12.93
2022-12-04T08:08:30.116Z,11.67
2022-12-04T08:10:56.872Z,13.15
2022-12-04T08:13:25.077Z,12.57
2022-12-04T08:15:51.932Z,12.02
2022-12-04T08:18:18.876Z,12.38
2022-12-04T08:20:45.641Z,13.90
2022-12-04T08:23:12.323Z,12.75
2022-12-04T08:25:39.899Z,11.77
2022-12-04T08:28:07.611Z,12.43
2022-12-04T08:30:36.057Z,12.93
2022-12-04T08:33:03.055Z,12.63
2022-12-04T08:35:30.068Z,11.70
2022-12-04T08:37:56.737Z,11.73
2022-12-04T08:40:23.519Z,11.65
2022-12-04T08:42:50.452Z,11.88
2022-12-04T08:45:17.409Z,11.23
2022-12-04T08:47:50.654Z,9.65
2022-12-04T08:50:19.356Z,11.52
2022-12-04T08:52:46.054Z,10.52
2022-12-04T08:55:12.817Z,10.75
2022-12-04T08:57:39.514Z,9.77
2022-12-04T09:00:09.243Z,9.63
2022-12-04T09:02:36.123Z,8.95
2022-12-04T09:05:04.689Z,10.68
2022-12-04T09:07:31.465Z,8.45
2022-12-04T09:09:58.434Z,9.37
2022-12-04T09:12:25.559Z,7.95
2022-12-04T09:14:52.381Z,9.13
2022-12-04T09:17:19.039Z,9.70
2022-12-04T09:19:45.746Z,8.45
2022-12-04T09:22:14.046Z,11.90
2022-12-04T09:24:40.901Z,8.07
2022-12-04T09:27:14.339Z,8.88
2022-12-04T09:29:41.486Z,13.63
2022-12-04T09:32:08.238Z,9.70
2022-12-04T09:34:35.129Z,10.43
2022-12-04T09:37:01.969Z,8.68
2022-12-04T09:39:30.264Z,9.32
2022-12-04T09:42:20.346Z,10.00
2022-12-04T09:44:51.194Z,9.50
2022-12-04T09:47:22.734Z,8.30
2022-12-04T09:49:53.563Z,9.48
2022-12-04T09:52:33.583Z,9.73
2022-12-04T09:55:05.167Z,8.75
2022-12-04T09:57:36.867Z,8.77
2022-12-04T10:00:06.780Z,8.07
2022-12-04T10:02:37.229Z,10.73
2022-12-04T10:05:05.156Z,9.13
2022-12-04T10:07:37.051Z,9.00
2022-12-04T10:10:13.004Z,9.07
2022-12-04T10:12:49.500Z,11.13
2022-12-04T10:15:26.381Z,9.20
2022-12-04T10:18:17.706Z,8.52
2022-12-04T10:21:02.108Z,9.90
2022-12-04T10:23:44.293Z,8.27
2022-12-04T10:26:16.893Z,9.30
2022-12-04T10:28:53.489Z,7.60
2022-12-04T10:31:21.873Z,8.30
2022-12-04T10:33:53.580Z,8.55
2022-12-04T10:36:24.650Z,9.40
2022-12-04T10:38:55.354Z,8.00
2022-12-04T10:41:29.568Z,7.15
2022-12-04T10:43:56.404Z,8.18
2022-12-04T10:46:27.027Z,9.52
2022-12-04T10:48:57.766Z,9.55
2022-12-04T10:51:24.409Z,10.68
2022-12-04T10:53:51.972Z,9.77
2022-12-04T10:56:23.581Z,8.95
2022-12-04T10:59:00.024Z,8.55
2022-12-04T11:01:29.201Z,10.32
2022-12-04T11:03:58.919Z,9.53
2022-12-04T11:06:27.190Z,10.45
2022-12-04T11:08:55.250Z,8.50
2022-12-04T11:11:25.562Z,8.38
2022-12-04T11:14:03.010Z,7.88
2022-12-04T11:16:35.078Z,9.32
2022-12-04T11:19:01.997Z,8.55
2022-12-04T11:21:30.990Z,7.43
2022-12-04T11:23:58.004Z,8.35
2022-12-04T11:26:31.495Z,9.23
2022-12-04T11:28:59.560Z,8.75
2022-12-04T11:31:28.688Z,7.88
2022-12-04T11:33:59.291Z,9.45
2022-12-04T11:36:30.231Z,8.55
2022-12-04T11:39:07.424Z,8.48
2022-12-04T11:41:34.270Z,8.75
2022-12-04T11:44:01.212Z,10.38
2022-12-04T11:46:31.130Z,8.55
2022-12-04T11:48:57.956Z,7.57
2022-12-04T11:51:38.873Z,7.97
2022-12-04T11:54:16.161Z,7.80
2022-12-04T11:56:47.516Z,7.25
2022-12-04T11:59:35.002Z,8.43
2022-12-04T12:02:30.333Z,7.88
2022-12-04T12:05:18.504Z,8.63
2022-12-04T12:07:57.647Z,8.85
2022-12-04T12:10:33.826Z,7.82
2022-12-04T12:13:08.897Z,8.27
2022-12-04T12:15:44.820Z,7.68
2022-12-04T12:18:30.458Z,8.80
2022-12-04T12:21:03.516Z,8.67
2022-12-04T12:23:54.784Z,8.10
2022-12-04T12:26:26.771Z,8.50
2022-12-04T12:29:15.687Z,8.52
2022-12-04T12:32:06.332Z,8.00
2022-12-04T12:34:38.162Z,8.25
2022-12-04T12:37:11.602Z,9.40
2022-12-04T12:39:41.189Z,8.65
2022-12-04T12:42:15.362Z,7.97
2022-12-04T12:44:48.596Z,7.35
2022-12-04T12:47:19.515Z,9.45
2022-12-04T12:49:52.128Z,8.88
2022-12-04T12:52:30.371Z,9.02
2022-12-04T12:55:04.178Z,8.55
2022-12-04T12:57:35.927Z,8.32
2022-12-04T13:00:06.558Z,10.65
2022-12-04T13:02:41.120Z,7.90
2022-12-04T13:05:13.085Z,8.27
2022-12-04T13:07:47.704Z,9.48
2022-12-04T13:10:18.494Z,8.20
2022-12-04T13:12:49.167Z,9.30
2022-12-04T13:15:17.634Z,7.90
2022-12-04T13:17:46.543Z,8.68
2022-12-04T13:20:20.134Z,9.30
2022-12-04T13:23:01.525Z,9.85
2022-12-04T13:25:41.102Z,9.60
2022-12-04T13:28:22.706Z,7.93
2022-12-04T13:31:01.054Z,9.48
2022-12-04T13:33:52.489Z,9.57
2022-12-04T13:36:46.279Z,9.07
2022-12-04T13:40:01.708Z,8.65
2022-12-04T13:42:29.317Z,9.48
2022-12-04T13:44:58.503Z,9.90
2022-12-04T13:47:27.655Z,9.10
2022-12-04T13:50:07.298Z,10.30
2022-12-04T13:52:40.949Z,9.00
2022-12-04T13:55:24.384Z,9.88
2022-12-04T13:57:55.833Z,9.00
2022-12-04T14:00:29.488Z,9.77
2022-12-04T14:02:59.136Z,9.73
2022-12-04T14:05:28.930Z,9.77
2022-12-04T14:08:06.911Z,9.98
2022-12-04T14:10:36.993Z,9.52
2022-12-04T14:13:08.638Z,10.70
2022-12-04T14:15:37.178Z,9.32
2022-12-04T14:18:16.056Z,11.07
2022-12-04T14:20:43.906Z,10.45
2022-12-04T14:23:36.061Z,10.75
2022-12-04T14:26:02.885Z,10.38
2022-12-04T14:28:42.587Z,11.55
2022-12-04T14:31:25.574Z,12.77
2022-12-04T14:33:57.099Z,10.93
2022-12-04T14:36:26.206Z,9.98
2022-12-04T14:39:05.525Z,10.50
2022-12-04T14:41:32.699Z,10.82
2022-12-04T14:43:59.908Z,12.23
2022-12-04T14:46:34.149Z,9.98
2022-12-04T14:49:18.313Z,10.55
2022-12-04T14:51:51.185Z,11.68
2022-12-04T14:54:28.581Z,10.70
2022-12-04T14:57:07.277Z,12.43
2022-12-04T14:59:43.816Z,11.93
2022-12-04T15:02:16.315Z,11.90
2022-12-04T15:04:43.699Z,11.60
2022-12-04T15:07:10.459Z,10.75
2022-12-04T15:09:38.611Z,11.38
2022-12-04T15:12:16.516Z,12.38
2022-12-04T15:14:44.582Z,12.20
2022-12-04T15:17:12.512Z,10.77
2022-12-04T15:19:39.337Z,13.45
2022-12-04T15:22:11.921Z,11.27
2022-12-04T15:24:40.103Z,12.02
2022-12-04T15:27:07.192Z,12.98
2022-12-04T15:29:37.923Z,13.50
2022-12-04T15:32:08.355Z,13.98
2022-12-04T15:34:38.554Z,12.82
2022-12-04T15:37:08.381Z,13.13
2022-12-04T15:39:36.671Z,14.77
2022-12-04T15:42:16.759Z,16.23
2022-12-04T15:44:51.094Z,17.92
2022-12-04T15:47:21.694Z,19.33
2022-12-04T15:49:48.877Z,17.77
2022-12-04T15:52:17.524Z,18.55
2022-12-04T15:54:48.380Z,16.45
2022-12-04T15:57:26.527Z,17.35
2022-12-04T15:59:54.158Z,17.10
2022-12-04T16:02:25.866Z,18.75
2022-12-04T16:04:52.589Z,18.95
2022-12-04T16:07:22.089Z,21.00
2022-12-04T16:09:59.395Z,19.13
2022-12-04T16:12:32.576Z,16.17
2022-12-04T16:14:59.598Z,17.42
2022-12-04T16:17:31.397Z,17.08
2022-12-04T16:19:58.768Z,18.50
2022-12-04T16:22:26.554Z,18.02
2022-12-04T16:24:54.279Z,18.92
2022-12-04T16:27:23.196Z,17.63
2022-12-04T16:29:52.173Z,17.00
2022-12-04T16:32:21.899Z,19.02
2022-12-04T16:34:48.998Z,18.88
2022-12-04T16:37:18.095Z,19.40
2022-12-04T16:39:45.748Z,17.92
2022-12-04T16:42:16.707Z,17.77
2022-12-04T16:44:43.541Z,16.95
2022-12-04T16:47:12.948Z,20.85
2022-12-04T16:49:40.058Z,19.10
2022-12-04T16:52:07.103Z,18.95
2022-12-04T16:54:34.122Z,21.63
2022-12-04T16:57:00.982Z,19.75
2022-12-04T16:59:27.764Z,22.58
2022-12-04T17:01:54.852Z,20.10
2022-12-04T17:04:23.200Z,19.77
2022-12-04T17:06:50.512Z,19.83
2022-12-04T17:09:17.512Z,19.10
2022-12-04T17:11:44.949Z,21.30
2022-12-04T17:14:11.765Z,19.35
2022-12-04T17:16:41.467Z,19.75
2022-12-04T17:19:10.059Z,19.55
2022-12-04T17:21:38.473Z,21.10
2022-12-04T17:24:06.087Z,21.33
2022-12-04T17:26:32.983Z,20.20
2022-12-04T17:28:59.768Z,19.60
2022-12-04T17:31:26.998Z,19.13
2022-12-04T17:33:53.834Z,18.55
2022-12-04T17:36:22.828Z,19.92
2022-12-04T17:38:54.946Z,19.00
2022-12-04T17:41:21.837Z,21.00
2022-12-04T17:43:48.766Z,20.65
2022-12-04T17:46:17.335Z,21.27
2022-12-04T17:48:44.513Z,21.95
2022-12-04T17:51:13.767Z,19.83
2022-12-04T17:53:40.694Z,22.20
2022-12-04T17:56:12.428Z,20.88
2022-12-04T17:58:39.512Z,21.15
2022-12-04T18:01:09.104Z,20.58
2022-12-04T18:03:36.055Z,19.33
2022-12-04T18:06:11.359Z,20.17
2022-12-04T18:08:38.146Z,21.90
2022-12-04T18:11:05.176Z,21.15
2022-12-04T18:13:33.888Z,21.80
2022-12-04T18:16:03.008Z,21.20
2022-12-04T18:18:29.804Z,21.50
2022-12-04T18:21:00.337Z,20.38
2022-12-04T18:23:27.029Z,21.45
2022-12-04T18:25:57.227Z,21.05
2022-12-04T18:28:24.198Z,24.60
2022-12-04T18:30:52.373Z,24.40
2022-12-04T18:33:19.259Z,26.00
2022-12-04T18:35:53.775Z,23.98
2022-12-04T18:38:20.503Z,22.10
2022-12-04T18:40:47.265Z,24.23
2022-12-04T18:43:14.004Z,21.60
2022-12-04T18:45:40.762Z,21.77
2022-12-04T18:48:08.929Z,22.98
2022-12-04T18:50:36.246Z,21.30
2022-12-04T18:53:03.160Z,23.83
2022-12-04T18:55:30.032Z,22.92
2022-12-04T18:57:56.676Z,25.05
2022-12-04T19:00:23.472Z,24.98
2022-12-04T19:02:50.400Z,25.08
2022-12-04T19:05:18.556Z,23.50
2022-12-04T19:07:45.997Z,24.88
2022-12-04T19:10:12.689Z,23.20
2022-12-04T19:12:39.563Z,23.55
2022-12-04T19:15:07.264Z,23.88
2022-12-04T19:17:33.962Z,22.48
2022-12-04T19:20:03.833Z,23.40
2022-12-04T19:22:32.003Z,24.15
2022-12-04T19:24:58.791Z,25.23
2022-12-04T19:27:25.468Z,23.02
2022-12-04T19:29:52.302Z,25.10
2022-12-04T19:32:19.516Z,24.35
2022-12-04T19:34:48.412Z,26.88
2022-12-04T19:37:15.211Z,24.83
2022-12-04T19:39:44.668Z,24.52
2022-12-04T19:42:11.412Z,34.40
2022-12-04T19:44:53.539Z,26.60
2022-12-04T19:47:20.339Z,31.83
2022-12-04T19:49:47.418Z,27.77
2022-12-04T19:52:14.255Z,27.70
2022-12-04T19:54:41.299Z,24.87
2022-12-04T19:57:09.354Z,26.85
2022-12-04T19:59:38.598Z,26.88
2022-12-04T20:02:09.225Z,24.45
2022-12-04T20:04:37.246Z,28.27
2022-12-04T20:07:04.602Z,29.00
2022-12-04T20:09:31.803Z,24.70
2022-12-04T20:11:58.541Z,25.95
2022-12-04T20:14:26.633Z,25.77
2022-12-04T20:16:53.455Z,25.95
2022-12-04T20:19:20.552Z,27.03
2022-12-04T20:21:47.339Z,29.95
2022-12-04T20:24:16.731Z,29.38
2022-12-04T20:26:44.825Z,27.95
2022-12-04T20:29:13.920Z,26.23
2022-12-04T20:31:43.772Z,29.88
2022-12-04T20:34:13.528Z,31.25
2022-12-04T20:36:41.989Z,29.08
2022-12-04T20:39:10.238Z,27.90
2022-12-04T20:41:37.458Z,28.20
2022-12-04T20:44:06.215Z,29.23
2022-12-04T20:46:34.590Z,27.65
2022-12-04T20:49:06.097Z,30.13
2022-12-04T20:51:34.883Z,26.10
2022-12-04T20:54:02.211Z,28.50
2022-12-04T20:56:31.381Z,27.67
2022-12-04T20:58:59.137Z,29.17
2022-12-04T21:01:27.118Z,30.38
2022-12-04T21:03:54.059Z,30.13
2022-12-04T21:06:26.361Z,32.25
2022-12-04T21:08:55.071Z,28.80
2022-12-04T21:11:22.630Z,29.98
2022-12-04T21:13:49.395Z,29.35
2022-12-04T21:16:16.475Z,30.73
2022-12-04T21:18:43.367Z,32.88
2022-12-04T21:21:10.037Z,30.57
2022-12-04T21:23:38.162Z,29.20
2022-12-04T21:26:05.233Z,32.53
2022-12-04T21:28:31.972Z,31.10
2022-12-04T21:31:01.036Z,32.95
2022-12-04T21:33:27.824Z,28.37
2022-12-04T21:35:54.547Z,31.27
2022-12-04T21:38:21.301Z,31.75
2022-12-04T21:40:49.652Z,33.85
2022-12-04T21:43:16.377Z,32.13
2022-12-04T21:45:43.129Z,33.88
2022-12-04T21:48:09.993Z,32.90
2022-12-04T21:50:36.718Z,36.38
2022-12-04T21:53:03.555Z,33.78
2022-12-04T21:55:30.280Z,31.02
2022-12-04T21:57:58.376Z,30.65
2022-12-04T22:00:25.089Z,32.00
2022-12-04T22:02:51.866Z,33.53
2022-12-04T22:05:18.581Z,31.42
2022-12-04T22:07:47.002Z,33.42
2022-12-04T22:10:13.815Z,33.50
2022-12-04T22:12:49.656Z,30.45
2022-12-04T22:15:18.573Z,32.10
2022-12-04T22:17:45.269Z,29.00
2022-12-04T22:20:12.132Z,30.45
2022-12-04T22:22:38.812Z,30.23
2022-12-04T22:25:06.296Z,31.85
2022-12-04T22:27:33.171Z,32.95
2022-12-04T22:30:00.372Z,30.05
2022-12-04T22:32:28.663Z,33.47
2022-12-04T22:34:55.379Z,31.55
2022-12-04T22:37:23.046Z,29.38
2022-12-04T22:39:49.728Z,28.20
2022-12-04T22:42:16.387Z,30.23
2022-12-04T22:44:43.178Z,28.20
2022-12-04T22:47:09.966Z,28.02
2022-12-04T22:49:38.268Z,30.20
2022-12-04T22:52:05.160Z,32.15
2022-12-04T22:54:32.108Z,29.25
2022-12-04T22:56:58.826Z,33.00
2022-12-04T22:59:25.511Z,30.15
2022-12-04T23:01:52.176Z,32.55
2022-12-04T23:04:18.899Z,29.80
2022-12-04T23:06:47.012Z,32.10
2022-12-04T23:09:16.468Z,27.85
2022-12-04T23:11:44.114Z,31.10
2022-12-04T23:14:13.891Z,31.85
2022-12-04T23:16:41.713Z,29.48
2022-12-04T23:19:11.710Z,27.90
2022-12-04T23:21:39.016Z,29.45
2022-12-04T23:24:07.618Z,32.83
2022-12-04T23:26:36.920Z,30.20
2022-12-04T23:29:13.505Z,28.83
2022-12-04T23:31:50.426Z,30.45
2022-12-04T23:34:17.262Z,30.25
2022-12-04T23:36:44.046Z,32.72
2022-12-04T23:39:12.211Z,29.73
2022-12-04T23:41:39.003Z,31.02
2022-12-04T23:44:05.757Z,33.00
2022-12-04T23:46:33.255Z,31.10
2022-12-04T23:49:00.768Z,31.70
2022-12-04T23:51:28.273Z,31.63
2022-12-04T23:53:55.808Z,30.00
2022-12-04T23:56:25.694Z,33.95
2022-12-04T23:58:54.049Z,35.10
